Terminal Aerodrome Forecast
Issued by NWS Miami, FL

Home | Current Version | Previous Version | Text Only | Print | Product List | Glossary On
Versions: 1 2 3 4 5 6 7 8 9 10 11 12 13 14 15 16 17 18 19 20 21 22 23 24 25 26 27
000
FTUS42 KMFL 250259 AAB
TAFPBI
TAF AMD
KPBI 250259Z 2503/2524 10010KT P6SM VCSH SCT020 SCT050 BKN250
     FM250400 09010KT P6SM FEW025 SCT050
     FM251400 07015KT P6SM SCT035=

USA.gov is the U.S. government's official web portal to all federal, state and local government web resources and services.